Time;durP1;ratioP1;P1;durP2;ratioP2;P2;SDS_P1;SDS_P2;PMS_P1;PMS_P2;Temp;Humidity;BMP_temperature;BMP_pressure;BME280_temperature;BME280_humidity;BME280_pressure;Samples;Min_cycle;Max_cycle;Signal;HPM_P1;HPM_P2
2022/06/23 00:02:28;;;;;;;0.00;0.00;;;18.20;99.90;;;;;;5040669;28;20219;-75
2022/06/23 00:04:59;;;;;;;0.00;0.00;;;18.20;99.90;;;;;;5042745;28;20203;-75
2022/06/23 00:07:30;;;;;;;0.00;0.00;;;18.20;99.90;;;;;;5050280;28;20285;-75
2022/06/23 00:09:58;;;;;;;0.00;0.00;;;18.20;99.90;;;;;;5044675;28;20219;-75
2022/06/23 00:12:30;;;;;;;0.00;0.00;;;18.20;99.90;;;;;;5042879;28;21142;-75
2022/06/23 00:15:17;;;;;;;0.00;0.00;;;18.10;99.90;;;;;;5042310;28;20245;-75
2022/06/23 00:17:46;;;;;;;0.00;0.00;;;18.10;99.90;;;;;;5036677;28;20289;-75
2022/06/23 00:20:17;;;;;;;0.00;0.00;;;18.20;99.90;;;;;;5040772;28;20198;-75
2022/06/23 00:22:50;;;;;;;0.00;0.00;;;18.10;99.90;;;;;;5040227;28;20239;-75
2022/06/23 00:25:33;;;;;;;0.00;0.00;;;18.00;99.90;;;;;;5040128;28;20231;-75
2022/06/23 00:28:01;;;;;;;0.00;0.00;;;17.90;99.90;;;;;;5033147;28;20210;-75
2022/06/23 00:30:35;;;;;;;0.00;0.00;;;17.80;99.90;;;;;;5059308;28;20893;-75
2022/06/23 00:33:07;;;;;;;0.00;0.00;;;17.80;99.90;;;;;;5043419;28;20238;-75
2022/06/23 00:35:34;;;;;;;0.00;0.00;;;17.70;99.90;;;;;;5045926;28;20210;-75
2022/06/23 00:38:03;;;;;;;0.00;0.00;;;17.60;99.90;;;;;;5045080;28;20191;-75
2022/06/23 00:40:30;;;;;;;0.00;0.00;;;17.60;99.90;;;;;;5034370;28;20263;-75
2022/06/23 00:43:00;;;;;;;0.00;0.00;;;17.60;99.90;;;;;;5039943;28;20214;-75
2022/06/23 00:45:35;;;;;;;0.00;0.00;;;17.60;99.90;;;;;;5036768;28;20202;-75
2022/06/23 00:48:08;;;;;;;0.00;0.00;;;17.50;99.90;;;;;;5041748;28;20205;-74
2022/06/23 00:50:38;;;;;;;0.00;0.00;;;17.50;99.90;;;;;;5042723;28;20215;-75
2022/06/23 00:53:19;;;;;;;0.00;0.00;;;17.40;99.90;;;;;;5034620;28;20234;-75
2022/06/23 00:55:54;;;;;;;0.00;0.00;;;17.40;99.90;;;;;;5042865;28;20219;-75
2022/06/23 00:58:35;;;;;;;0.00;0.00;;;17.30;99.90;;;;;;5040624;28;20202;-75
2022/06/23 01:01:11;;;;;;;0.00;0.00;;;17.30;99.90;;;;;;5039037;28;20191;-75
2022/06/23 01:03:41;;;;;;;0.00;0.00;;;17.30;99.90;;;;;;5045771;28;20219;-75
2022/06/23 01:06:15;;;;;;;0.00;0.00;;;17.20;99.90;;;;;;5046096;28;20198;-75
2022/06/23 01:08:49;;;;;;;0.00;0.00;;;17.20;99.90;;;;;;5035855;28;20206;-75
2022/06/23 01:11:24;;;;;;;0.00;0.00;;;17.10;99.90;;;;;;5042374;28;20215;-75
2022/06/23 01:14:03;;;;;;;0.00;0.00;;;17.10;99.90;;;;;;5039807;28;20285;-75
2022/06/23 01:16:34;;;;;;;0.00;0.00;;;17.00;99.90;;;;;;5035982;28;20206;-75
2022/06/23 01:19:11;;;;;;;0.00;0.00;;;17.00;99.90;;;;;;5039403;28;20274;-76
2022/06/23 01:21:42;;;;;;;0.00;0.00;;;17.00;99.90;;;;;;5042296;28;20237;-75
2022/06/23 01:24:26;;;;;;;0.00;0.00;;;16.90;99.90;;;;;;5045292;28;20199;-75
2022/06/23 01:27:24;;;;;;;0.00;0.00;;;16.90;99.90;;;;;;5042945;28;20195;-75
2022/06/23 01:30:00;;;;;;;0.00;0.00;;;16.90;99.90;;;;;;5039384;28;20211;-75
2022/06/23 01:32:31;;;;;;;0.00;0.00;;;16.90;99.90;;;;;;5046561;28;20207;-75
2022/06/23 01:35:06;;;;;;;0.00;0.00;;;16.80;99.90;;;;;;5043719;28;20203;-75
2022/06/23 01:37:36;;;;;;;0.00;0.00;;;16.90;99.90;;;;;;5041628;28;20227;-75
2022/06/23 01:40:13;;;;;;;0.00;0.00;;;16.80;99.90;;;;;;5049391;28;20249;-75
2022/06/23 01:42:46;;;;;;;0.00;0.00;;;16.90;99.90;;;;;;5043874;28;20234;-76
2022/06/23 01:45:21;;;;;;;0.00;0.00;;;16.90;99.90;;;;;;5047880;28;20206;-75
2022/06/23 01:47:54;;;;;;;0.00;0.00;;;16.80;99.90;;;;;;5047556;28;20256;-75
2022/06/23 01:50:41;;;;;;;0.00;0.00;;;16.90;99.90;;;;;;5049351;28;20210;-75
2022/06/23 01:53:23;;;;;;;0.00;0.00;;;16.80;99.90;;;;;;5039089;28;20756;-76
2022/06/23 01:56:09;;;;;;;0.00;0.00;;;16.80;99.90;;;;;;5053083;28;20558;-74
2022/06/23 01:58:47;;;;;;;0.00;0.00;;;16.80;99.90;;;;;;5026432;28;20215;-76
2022/06/23 02:01:21;;;;;;;0.00;0.00;;;16.90;99.90;;;;;;5040795;28;20587;-75
2022/06/23 02:03:57;;;;;;;0.00;0.00;;;16.90;99.90;;;;;;5040070;28;20363;-75
2022/06/23 02:06:29;;;;;;;0.00;0.00;;;;;;;;;;5048436;28;20199;-75
2022/06/23 02:09:00;;;;;;;0.00;0.00;;;;;;;;;;5043792;28;20199;-76
2022/06/23 02:11:34;;;;;;;0.00;0.00;;;16.90;99.90;;;;;;5040467;28;20287;-76
2022/06/23 02:14:08;;;;;;;0.00;0.00;;;16.70;99.90;;;;;;5040368;28;20207;-75
2022/06/23 02:16:44;;;;;;;0.00;0.00;;;16.80;99.90;;;;;;5040059;28;20273;-75
2022/06/23 02:19:16;;;;;;;0.00;0.00;;;;;;;;;;5038738;28;20261;-76
2022/06/23 02:21:46;;;;;;;0.00;0.00;;;;;;;;;;5041308;28;20222;-75
2022/06/23 02:24:21;;;;;;;0.00;0.00;;;16.50;99.90;;;;;;5048192;28;20238;-75
2022/06/23 02:26:58;;;;;;;0.00;0.00;;;16.50;99.90;;;;;;5047127;28;20290;-75
2022/06/23 02:29:31;;;;;;;0.00;0.00;;;16.50;99.90;;;;;;5033570;28;20210;-75
2022/06/23 02:32:06;;;;;;;0.00;0.00;;;16.50;99.90;;;;;;5047817;28;20222;-75
2022/06/23 02:34:36;;;;;;;0.00;0.00;;;;;;;;;;5050674;28;20214;-75
2022/06/23 02:37:42;;;;;;;0.00;0.00;;;16.40;99.90;;;;;;5042229;28;20204;-76
2022/06/23 02:40:16;;;;;;;0.00;0.00;;;;;;;;;;5036401;28;20211;-75
2022/06/23 02:42:43;;;;;;;0.00;0.00;;;;;;;;;;5037671;28;20307;-75
2022/06/23 02:45:19;;;;;;;0.00;0.00;;;;;;;;;;5040977;28;20207;-75
2022/06/23 02:48:06;;;;;;;0.00;0.00;;;16.10;99.90;;;;;;5040346;28;20207;-75
2022/06/23 02:50:52;;;;;;;0.00;0.00;;;16.10;99.90;;;;;;5044017;28;20200;-75
2022/06/23 02:53:38;;;;;;;0.00;0.00;;;16.10;99.90;;;;;;5041201;28;20231;-75
2022/06/23 02:56:26;;;;;;;0.00;0.00;;;16.10;99.90;;;;;;5044086;28;20207;-75
2022/06/23 02:58:58;;;;;;;0.00;0.00;;;16.00;99.90;;;;;;5043251;28;20669;-76
2022/06/23 03:01:29;;;;;;;0.00;0.00;;;16.00;99.90;;;;;;5047149;28;20194;-75
2022/06/23 03:04:04;;;;;;;0.00;0.00;;;16.00;99.90;;;;;;5048341;28;20207;-75
2022/06/23 03:06:39;;;;;;;0.00;0.00;;;16.00;99.90;;;;;;5059548;28;20245;-75
2022/06/23 03:09:11;;;;;;;0.00;0.00;;;16.00;99.90;;;;;;5040214;28;20231;-75
2022/06/23 03:11:55;;;;;;;0.00;0.00;;;16.00;99.90;;;;;;5039779;28;20414;-75
2022/06/23 03:14:32;;;;;;;0.00;0.00;;;16.00;99.90;;;;;;5044500;28;20707;-75
2022/06/23 03:17:05;;;;;;;0.00;0.00;;;16.00;99.90;;;;;;5036149;28;20200;-75
2022/06/23 03:19:39;;;;;;;0.00;0.00;;;16.00;99.90;;;;;;5038150;28;20273;-75
2022/06/23 03:22:13;;;;;;;0.00;0.00;;;16.10;99.90;;;;;;5040966;28;20311;-75
2022/06/23 03:24:45;;;;;;;0.00;0.00;;;16.20;99.90;;;;;;5051343;28;20225;-76
2022/06/23 03:27:24;;;;;;;0.00;0.00;;;16.20;99.90;;;;;;5037897;28;20282;-75
2022/06/23 03:29:56;;;;;;;0.00;0.00;;;16.30;99.90;;;;;;5043879;28;20207;-75
2022/06/23 03:32:28;;;;;;;0.00;0.00;;;16.40;99.90;;;;;;5040645;28;20218;-75
2022/06/23 03:35:01;;;;;;;0.00;0.00;;;16.40;99.90;;;;;;5036198;28;20195;-75
2022/06/23 03:37:37;;;;;;;0.00;0.00;;;16.50;99.90;;;;;;5060532;28;20311;-74
2022/06/23 03:43:13;;;;;;;0.00;0.00;;;16.80;99.90;;;;;;5046472;28;20211;-75
2022/06/23 03:45:48;;;;;;;0.00;0.00;;;16.90;99.90;;;;;;5037386;28;20209;-75
2022/06/23 03:48:20;;;;;;;0.00;0.00;;;17.10;99.90;;;;;;5043116;28;20226;-74
2022/06/23 03:50:54;;;;;;;0.00;0.00;;;17.20;99.90;;;;;;5039765;28;20218;-74
2022/06/23 03:53:27;;;;;;;0.00;0.00;;;17.30;99.90;;;;;;5035100;28;20325;-75
2022/06/23 03:55:58;;;;;;;0.00;0.00;;;17.40;99.90;;;;;;5038355;28;20277;-74
2022/06/23 03:58:36;;;;;;;0.00;0.00;;;17.50;99.90;;;;;;5041221;28;20211;-75
2022/06/23 04:01:08;;;;;;;0.00;0.00;;;17.60;99.90;;;;;;5048158;28;20226;-75
2022/06/23 04:03:38;;;;;;;0.00;0.00;;;17.80;99.90;;;;;;5041292;28;20270;-75
2022/06/23 04:06:33;;;;;;;0.00;0.00;;;17.90;99.90;;;;;;5042669;28;20203;-75
2022/06/23 04:09:05;;;;;;;0.00;0.00;;;18.00;99.90;;;;;;5040597;28;20223;-75
2022/06/23 04:11:45;;;;;;;0.00;0.00;;;18.20;99.90;;;;;;5046727;28;20225;-75
2022/06/23 04:14:30;;;;;;;0.00;0.00;;;18.30;99.90;;;;;;5041374;28;20203;-75
2022/06/23 04:17:14;;;;;;;0.00;0.00;;;18.40;99.90;;;;;;5031859;28;20299;-75
2022/06/23 04:19:45;;;;;;;0.00;0.00;;;18.60;99.90;;;;;;5044055;28;20195;-75
2022/06/23 04:22:21;;;;;;;0.00;0.00;;;18.70;99.90;;;;;;5048304;28;20761;-75
2022/06/23 04:24:53;;;;;;;0.00;0.00;;;18.70;99.90;;;;;;5045669;28;20198;-75
2022/06/23 04:27:23;;;;;;;0.00;0.00;;;18.80;99.90;;;;;;5043221;28;20207;-75
2022/06/23 04:29:53;;;;;;;0.00;0.00;;;18.80;99.90;;;;;;5043816;28;20748;-75
2022/06/23 04:32:24;;;;;;;0.00;0.00;;;19.00;99.90;;;;;;5034915;28;20238;-75
2022/06/23 04:34:55;;;;;;;0.00;0.00;;;19.00;99.90;;;;;;5040204;28;20208;-75
2022/06/23 04:37:41;;;;;;;0.00;0.00;;;19.10;99.90;;;;;;5042890;28;20226;-75
2022/06/23 04:40:21;;;;;;;0.00;0.00;;;19.20;99.90;;;;;;5041596;28;20203;-75
2022/06/23 04:42:53;;;;;;;0.00;0.00;;;19.20;99.90;;;;;;5044133;28;20245;-75
2022/06/23 04:45:31;;;;;;;0.00;0.00;;;19.20;99.90;;;;;;5038334;28;20307;-74
2022/06/23 04:48:01;;;;;;;0.00;0.00;;;19.30;99.90;;;;;;5041447;28;20199;-74
2022/06/23 04:50:40;;;;;;;0.00;0.00;;;19.30;99.90;;;;;;5037369;28;20207;-75
2022/06/23 04:53:23;;;;;;;0.00;0.00;;;19.40;99.90;;;;;;5039077;28;20649;-74
2022/06/23 04:56:06;;;;;;;0.00;0.00;;;19.40;99.90;;;;;;5034559;28;20204;-74
2022/06/23 04:58:36;;;;;;;0.00;0.00;;;19.50;99.90;;;;;;5040378;28;20209;-74
2022/06/23 05:01:04;;;;;;;0.00;0.00;;;19.60;99.90;;;;;;5036385;28;20232;-74
2022/06/23 05:03:35;;;;;;;0.00;0.00;;;19.70;99.90;;;;;;5060288;28;20223;-74
2022/06/23 05:06:11;;;;;;;0.00;0.00;;;19.90;99.90;;;;;;5039250;28;20203;-74
2022/06/23 05:08:43;;;;;;;0.00;0.00;;;20.00;99.90;;;;;;5043444;28;20280;-74
2022/06/23 05:11:22;;;;;;;0.00;0.00;;;20.10;99.90;;;;;;5050009;28;20211;-74
2022/06/23 05:14:00;;;;;;;0.00;0.00;;;20.30;99.90;;;;;;5038180;28;20203;-74
2022/06/23 05:16:29;;;;;;;0.00;0.00;;;20.50;99.90;;;;;;5042869;28;20199;-74
2022/06/23 05:19:00;;;;;;;0.00;0.00;;;20.60;99.90;;;;;;5039086;28;20267;-75
2022/06/23 05:21:31;;;;;;;0.00;0.00;;;20.70;99.90;;;;;;5034538;28;20235;-74
2022/06/23 05:24:05;;;;;;;0.00;0.00;;;20.80;99.90;;;;;;5046759;28;20203;-74
2022/06/23 05:26:39;;;;;;;0.00;0.00;;;20.80;99.90;;;;;;5045590;28;20198;-74
2022/06/23 05:29:15;;;;;;;0.00;0.00;;;21.00;99.90;;;;;;5043999;28;20207;-74
2022/06/23 05:31:42;;;;;;;0.00;0.00;;;21.10;99.90;;;;;;5046583;28;20210;-74
2022/06/23 05:34:14;;;;;;;0.00;0.00;;;21.10;99.90;;;;;;5049680;28;20207;-74
2022/06/23 05:36:49;;;;;;;0.00;0.00;;;21.30;99.90;;;;;;5036962;28;20195;-74
2022/06/23 05:39:22;;;;;;;0.00;0.00;;;21.40;99.90;;;;;;5043440;28;20191;-74
2022/06/23 05:41:53;;;;;;;0.00;0.00;;;21.60;99.90;;;;;;5039063;28;20212;-75
2022/06/23 05:44:24;;;;;;;0.00;0.00;;;21.80;99.90;;;;;;5045238;28;20226;-75
2022/06/23 05:46:52;;;;;;;0.00;0.00;;;;;;;;;;5044181;28;20239;-75
2022/06/23 05:49:22;;;;;;;0.00;0.00;;;22.10;99.90;;;;;;5041527;28;20200;-75
2022/06/23 05:51:54;;;;;;;0.00;0.00;;;22.30;99.90;;;;;;5038846;28;20223;-74
2022/06/23 05:54:27;;;;;;;0.00;0.00;;;22.20;99.90;;;;;;5045002;28;20203;-74
2022/06/23 05:57:02;;;;;;;0.00;0.00;;;22.40;99.90;;;;;;5036519;28;20239;-75
2022/06/23 05:59:36;;;;;;;0.00;0.00;;;22.40;99.90;;;;;;5037059;28;20202;-75
2022/06/23 06:02:10;;;;;;;0.00;0.00;;;22.50;99.90;;;;;;5033967;28;20590;-74
2022/06/23 06:04:45;;;;;;;0.00;0.00;;;22.60;99.90;;;;;;5039199;28;20204;-74
2022/06/23 06:07:15;;;;;;;0.00;0.00;;;22.60;99.90;;;;;;5043721;28;20203;-74
2022/06/23 06:09:43;;;;;;;0.00;0.00;;;22.70;99.90;;;;;;5041329;28;20231;-74
2022/06/23 06:12:16;;;;;;;0.00;0.00;;;22.80;99.90;;;;;;5039469;28;20235;-75
2022/06/23 06:14:47;;;;;;;0.00;0.00;;;23.00;99.90;;;;;;5042684;28;20204;-74
2022/06/23 06:17:19;;;;;;;0.00;0.00;;;23.20;99.90;;;;;;5041284;28;20743;-74
2022/06/23 06:19:48;;;;;;;0.00;0.00;;;23.40;99.90;;;;;;5036912;28;20207;-73
2022/06/23 06:22:39;;;;;;;0.00;0.00;;;23.50;99.90;;;;;;5037301;28;20204;-73
2022/06/23 06:25:16;;;;;;;0.00;0.00;;;23.50;99.90;;;;;;5038470;28;20208;-73
2022/06/23 06:27:43;;;;;;;0.00;0.00;;;23.60;99.90;;;;;;5038009;28;20203;-73
2022/06/23 06:30:15;;;;;;;0.00;0.00;;;23.70;99.90;;;;;;5040441;28;20466;-73
2022/06/23 06:32:44;;;;;;;0.00;0.00;;;23.80;99.90;;;;;;5045177;28;20235;-73
2022/06/23 06:35:21;;;;;;;0.00;0.00;;;23.90;99.90;;;;;;5043091;28;20203;-73
2022/06/23 06:37:52;;;;;;;0.00;0.00;;;24.00;99.90;;;;;;5043860;28;20270;-73
2022/06/23 06:40:21;;;;;;;0.00;0.00;;;24.00;99.90;;;;;;5033018;28;20295;-72
2022/06/23 06:42:52;;;;;;;0.00;0.00;;;24.00;99.90;;;;;;5040903;28;20287;-74
2022/06/23 06:45:28;;;;;;;0.00;0.00;;;24.00;99.90;;;;;;5039890;28;20202;-73
2022/06/23 06:47:54;;;;;;;0.00;0.00;;;24.10;99.90;;;;;;5048608;28;20787;-74
2022/06/23 06:53:59;;;;;;;0.00;0.00;;;24.30;99.90;;;;;;5023323;28;20313;-72
2022/06/23 06:56:36;;;;;;;0.00;0.00;;;24.40;99.90;;;;;;5043219;28;20242;-73
2022/06/23 06:59:11;;;;;;;0.00;0.00;;;24.50;99.90;;;;;;5040246;28;20218;-70
2022/06/23 07:01:42;;;;;;;0.00;0.00;;;24.70;99.90;;;;;;5042954;28;20210;-70
2022/06/23 07:04:14;;;;;;;0.00;0.00;;;24.80;99.90;;;;;;5041077;28;20200;-71
2022/06/23 07:06:44;;;;;;;0.00;0.00;;;24.90;99.90;;;;;;5039561;28;20215;-72
2022/06/23 07:09:17;;;;;;;0.00;0.00;;;25.10;99.90;;;;;;5040874;28;20212;-73
2022/06/23 07:11:53;;;;;;;0.00;0.00;;;25.10;99.90;;;;;;5056536;28;20294;-73
2022/06/23 07:14:25;;;;;;;0.00;0.00;;;;;;;;;;5064945;28;20195;-73
2022/06/23 07:16:57;;;;;;;0.00;0.00;;;24.50;99.90;;;;;;5042713;28;20245;-73
2022/06/23 07:19:31;;;;;;;0.00;0.00;;;25.50;99.90;;;;;;5063213;28;20199;-73
2022/06/23 07:22:06;;;;;;;0.00;0.00;;;25.60;99.90;;;;;;5044070;28;20218;-72
2022/06/23 07:24:39;;;;;;;0.00;0.00;;;25.80;99.90;;;;;;5040790;28;20211;-72
2022/06/23 07:27:14;;;;;;;0.00;0.00;;;26.00;99.90;;;;;;5036119;28;20203;-73
2022/06/23 07:29:47;;;;;;;0.00;0.00;;;26.20;99.90;;;;;;5042195;28;20210;-72
2022/06/23 07:32:22;;;;;;;0.00;0.00;;;26.30;99.90;;;;;;5040668;28;20251;-72
2022/06/23 07:34:54;;;;;;;0.00;0.00;;;26.40;99.90;;;;;;5043023;28;20195;-72
2022/06/23 07:37:27;;;;;;;0.00;0.00;;;26.50;99.90;;;;;;5043798;28;20207;-73
2022/06/23 07:40:00;;;;;;;0.00;0.00;;;26.60;99.90;;;;;;5038460;28;20199;-73
2022/06/23 07:42:45;;;;;;;0.00;0.00;;;26.50;99.90;;;;;;5057998;28;20207;-72
2022/06/23 07:45:18;;;;;;;0.00;0.00;;;26.50;99.90;;;;;;5043372;28;20233;-73
2022/06/23 07:47:45;;;;;;;0.00;0.00;;;26.60;99.90;;;;;;5035724;28;20591;-73
2022/06/23 07:50:12;;;;;;;0.00;0.00;;;26.60;99.90;;;;;;5041860;28;20210;-72
2022/06/23 07:52:40;;;;;;;0.00;0.00;;;26.70;99.90;;;;;;5056066;28;20233;-73
2022/06/23 07:55:16;;;;;;;0.00;0.00;;;26.80;99.90;;;;;;5046249;28;20209;-73
2022/06/23 07:57:45;;;;;;;0.00;0.00;;;26.80;99.90;;;;;;5038667;28;20281;-73
2022/06/23 08:00:14;;;;;;;0.00;0.00;;;27.00;99.90;;;;;;5044893;28;20207;-72
2022/06/23 08:02:46;;;;;;;0.00;0.00;;;27.10;99.90;;;;;;5033671;28;20216;-72
2022/06/23 08:05:17;;;;;;;0.00;0.00;;;27.10;99.90;;;;;;5053759;28;20196;-73
2022/06/23 08:07:45;;;;;;;0.00;0.00;;;27.20;99.90;;;;;;5039117;28;20208;-72
2022/06/23 08:10:17;;;;;;;0.00;0.00;;;27.20;99.90;;;;;;5043959;28;20211;-73
2022/06/23 08:12:55;;;;;;;0.00;0.00;;;27.40;99.90;;;;;;5045692;28;20313;-73
2022/06/23 08:18:19;;;;;;;0.00;0.00;;;27.60;99.90;;;;;;5037050;28;20340;-73
2022/06/23 08:20:49;;;;;;;0.00;0.00;;;;;;;;;;5047005;28;20731;-73
2022/06/23 08:23:18;;;;;;;0.00;0.00;;;27.70;99.90;;;;;;5042158;28;20215;-73
2022/06/23 08:25:45;;;;;;;0.00;0.00;;;27.80;99.90;;;;;;5039521;28;20256;-73
2022/06/23 08:28:13;;;;;;;0.00;0.00;;;;;;;;;;5045480;28;20282;-74
2022/06/23 08:30:41;;;;;;;0.00;0.00;;;28.10;99.90;;;;;;5036398;28;20196;-73
2022/06/23 08:33:08;;;;;;;0.00;0.00;;;28.10;99.90;;;;;;5049297;28;20226;-73
2022/06/23 08:35:39;;;;;;;0.00;0.00;;;;;;;;;;5047561;28;20218;-73
2022/06/23 08:38:09;;;;;;;0.00;0.00;;;29.60;99.90;;;;;;5042225;28;20214;-73
2022/06/23 08:40:55;;;;;;;0.00;0.00;;;28.60;99.90;;;;;;5046498;28;20218;-73
2022/06/23 08:43:30;;;;;;;0.00;0.00;;;28.60;99.90;;;;;;5046055;28;20272;-73
2022/06/23 08:46:06;;;;;;;0.00;0.00;;;28.60;99.90;;;;;;5040280;28;20206;-72
2022/06/23 08:48:41;;;;;;;0.00;0.00;;;28.60;99.90;;;;;;5049548;28;20198;-73
2022/06/23 08:51:17;;;;;;;0.00;0.00;;;28.70;99.90;;;;;;5048461;28;20660;-71
2022/06/23 08:53:59;;;;;;;0.00;0.00;;;28.70;99.90;;;;;;5038638;28;20273;-73
2022/06/23 08:56:31;;;;;;;0.00;0.00;;;28.80;99.90;;;;;;5044840;28;20187;-73
2022/06/23 08:59:09;;;;;;;0.00;0.00;;;28.70;99.90;;;;;;5046871;28;20207;-73
2022/06/23 09:01:43;;;;;;;0.00;0.00;;;28.70;99.90;;;;;;5042252;28;20234;-71
2022/06/23 09:04:18;;;;;;;0.00;0.00;;;28.70;99.90;;;;;;5059758;28;20279;-73
2022/06/23 09:06:53;;;;;;;0.00;0.00;;;28.80;99.90;;;;;;5045711;28;20202;-73
2022/06/23 09:09:29;;;;;;;0.00;0.00;;;28.80;99.90;;;;;;5047837;28;20207;-73
2022/06/23 09:12:06;;;;;;;0.00;0.00;;;28.80;99.90;;;;;;5039853;28;20243;-73
2022/06/23 09:14:58;;;;;;;0.00;0.00;;;28.80;99.90;;;;;;5037848;28;20716;-73
2022/06/23 09:17:50;;;;;;;0.00;0.00;;;28.70;99.90;;;;;;5040442;28;20311;-73
2022/06/23 09:20:34;;;;;;;0.00;0.00;;;28.80;99.90;;;;;;5044278;28;20202;-73
2022/06/23 09:23:12;;;;;;;0.00;0.00;;;;;;;;;;5036384;28;20233;-73
2022/06/23 09:25:42;;;;;;;0.00;0.00;;;;;;;;;;5044871;28;20202;-73
2022/06/23 09:28:16;;;;;;;0.00;0.00;;;29.10;99.90;;;;;;5039303;28;20222;-73
2022/06/23 09:30:59;;;;;;;0.00;0.00;;;29.10;99.90;;;;;;5040833;28;20206;-73
2022/06/23 09:33:40;;;;;;;0.00;0.00;;;29.30;99.90;;;;;;5049548;28;20326;-73
2022/06/23 09:36:31;;;;;;;0.00;0.00;;;29.20;99.90;;;;;;5044902;28;20208;-73
2022/06/23 09:39:17;;;;;;;0.00;0.00;;;29.20;99.90;;;;;;5044446;28;20223;-73
2022/06/23 09:42:09;;;;;;;0.00;0.00;;;29.10;99.90;;;;;;5009171;28;20328;-73
2022/06/23 09:44:50;;;;;;;0.00;0.00;;;29.20;99.90;;;;;;5047838;28;20203;-72
2022/06/23 09:47:48;;;;;;;0.00;0.00;;;29.20;99.90;;;;;;5037643;28;20204;-73
2022/06/23 09:50:24;;;;;;;0.00;0.00;;;;;;;;;;5042108;28;20554;-73
2022/06/23 09:53:09;;;;;;;0.00;0.00;;;;;;;;;;5040376;28;20310;-71
2022/06/23 09:56:06;;;;;;;0.00;0.00;;;29.30;99.90;;;;;;5034470;28;20294;-71
2022/06/23 09:58:59;;;;;;;0.00;0.00;;;29.50;99.90;;;;;;5041067;28;20444;-72
2022/06/23 10:01:30;;;;;;;0.00;0.00;;;;;;;;;;5056083;28;20204;-71
2022/06/23 10:04:13;;;;;;;0.00;0.00;;;;;;;;;;5036417;28;20202;-72
2022/06/23 10:07:01;;;;;;;0.00;0.00;;;29.70;99.90;;;;;;5060378;28;20207;-72
2022/06/23 10:09:40;;;;;;;0.00;0.00;;;29.80;99.90;;;;;;5042006;28;20214;-72
2022/06/23 10:12:32;;;;;;;0.00;0.00;;;29.90;99.90;;;;;;5042006;28;20219;-72
2022/06/23 10:15:04;;;;;;;0.00;0.00;;;;;;;;;;5042575;28;20230;-73
2022/06/23 10:17:43;;;;;;;0.00;0.00;;;;;;;;;;5040445;28;20251;-72
2022/06/23 10:20:21;;;;;;;0.00;0.00;;;;;;;;;;5042660;28;20214;-72
2022/06/23 10:22:58;;;;;;;0.00;0.00;;;;;;;;;;5034786;28;20237;-72
2022/06/23 10:25:42;;;;;;;0.00;0.00;;;;;;;;;;5047600;28;20195;-73
2022/06/23 10:28:22;;;;;;;0.00;0.00;;;;;;;;;;5059115;28;20196;-72
2022/06/23 10:30:53;;;;;;;0.00;0.00;;;;;;;;;;5045662;28;20203;-73
2022/06/23 10:33:34;;;;;;;0.00;0.00;;;;;;;;;;5043885;28;20296;-73
2022/06/23 10:36:11;;;;;;;0.00;0.00;;;;;;;;;;5042652;28;20269;-73
2022/06/23 10:38:46;;;;;;;0.00;0.00;;;;;;;;;;5034407;28;20199;-73
2022/06/23 10:41:59;;;;;;;0.00;0.00;;;30.60;99.90;;;;;;5060688;28;20237;-73
2022/06/23 10:44:54;;;;;;;0.00;0.00;;;30.70;99.90;;;;;;4965253;28;20193;-72
2022/06/23 10:47:38;;;;;;;0.00;0.00;;;30.60;99.90;;;;;;4964279;28;20264;-73
2022/06/23 10:50:31;;;;;;;0.00;0.00;;;30.50;99.90;;;;;;5024707;28;20205;-73
2022/06/23 10:53:40;;;;;;;0.00;0.00;;;30.60;99.90;;;;;;5037795;28;20669;-73
2022/06/23 10:56:29;;;;;;;0.00;0.00;;;30.70;99.90;;;;;;4973446;28;20209;-73
2022/06/23 10:59:13;;;;;;;0.00;0.00;;;30.70;99.90;;;;;;5045416;28;20199;-72
2022/06/23 11:01:58;;;;;;;0.00;0.00;;;30.80;99.90;;;;;;5036288;28;20203;-72
2022/06/23 11:04:54;;;;;;;0.00;0.00;;;30.90;99.90;;;;;;5040879;28;20203;-72
2022/06/23 11:07:36;;;;;;;0.00;0.00;;;30.90;99.90;;;;;;5062539;28;20270;-73
2022/06/23 11:10:19;;;;;;;0.00;0.00;;;31.00;99.90;;;;;;5037143;28;20301;-73
2022/06/23 11:13:01;;;;;;;0.00;0.00;;;31.10;99.90;;;;;;5045531;28;20688;-73
2022/06/23 11:15:36;;;;;;;0.00;0.00;;;31.10;99.90;;;;;;5053161;28;20734;-72
2022/06/23 11:18:31;;;;;;;0.00;0.00;;;31.10;99.90;;;;;;5043250;28;20199;-73
2022/06/23 11:21:17;;;;;;;0.00;0.00;;;31.20;99.90;;;;;;5040594;28;20202;-73
2022/06/23 11:23:54;;;;;;;0.00;0.00;;;31.20;99.90;;;;;;5040623;28;20234;-72
2022/06/23 11:26:35;;;;;;;0.00;0.00;;;31.20;99.90;;;;;;5045489;28;20203;-73
2022/06/23 11:29:27;;;;;;;0.00;0.00;;;31.00;99.90;;;;;;5034696;28;20215;-73
2022/06/23 11:32:05;;;;;;;0.00;0.00;;;31.20;99.90;;;;;;5043023;28;20223;-73
2022/06/23 11:34:42;;;;;;;0.00;0.00;;;;;;;;;;5047466;28;20230;-73
2022/06/23 11:37:15;;;;;;;0.00;0.00;;;;;;;;;;5042614;28;20661;-73
2022/06/23 11:39:56;;;;;;;0.00;0.00;;;31.50;99.90;;;;;;5041393;28;20203;-73
2022/06/23 11:42:51;;;;;;;0.00;0.00;;;31.40;99.90;;;;;;5047009;28;20218;-74
2022/06/23 11:45:30;;;;;;;0.00;0.00;;;31.40;99.90;;;;;;5060279;28;20188;-74
2022/06/23 11:48:10;;;;;;;0.00;0.00;;;31.30;99.90;;;;;;5041020;28;20210;-73
2022/06/23 11:50:41;;;;;;;0.00;0.00;;;31.30;99.90;;;;;;5043778;28;20214;-73
2022/06/23 11:53:19;;;;;;;0.00;0.00;;;31.30;99.90;;;;;;5038313;28;20311;-74
2022/06/23 11:55:52;;;;;;;0.00;0.00;;;31.40;99.90;;;;;;5034199;28;20200;-72
2022/06/23 11:58:39;;;;;;;0.00;0.00;;;31.30;99.90;;;;;;5055059;28;20215;-73
2022/06/23 12:01:15;;;;;;;0.00;0.00;;;31.20;99.90;;;;;;5036896;28;20203;-72
2022/06/23 12:04:04;;;;;;;0.00;0.00;;;31.10;99.90;;;;;;5057446;28;20220;-73
2022/06/23 12:06:43;;;;;;;0.00;0.00;;;31.20;99.90;;;;;;5036190;28;20209;-73
2022/06/23 12:09:21;;;;;;;0.00;0.00;;;31.30;99.90;;;;;;5054643;28;20203;-73
2022/06/23 12:11:49;;;;;;;0.00;0.00;;;31.50;99.90;;;;;;5050192;28;20330;-73
2022/06/23 12:14:18;;;;;;;0.00;0.00;;;31.40;99.90;;;;;;5037257;28;20216;-73
2022/06/23 12:16:50;;;;;;;0.00;0.00;;;31.40;99.90;;;;;;5038480;28;20215;-72
2022/06/23 12:19:20;;;;;;;0.00;0.00;;;31.40;99.90;;;;;;5030902;28;20206;-73
2022/06/23 12:21:55;;;;;;;0.00;0.00;;;31.30;99.90;;;;;;5038284;28;20223;-72
2022/06/23 12:24:28;;;;;;;0.00;0.00;;;31.40;99.90;;;;;;5032799;28;20256;-74
2022/06/23 12:27:04;;;;;;;0.00;0.00;;;31.30;99.90;;;;;;5039740;28;20249;-74
2022/06/23 12:29:38;;;;;;;0.00;0.00;;;31.40;99.90;;;;;;5051860;28;20209;-72
2022/06/23 12:32:12;;;;;;;0.00;0.00;;;31.40;99.90;;;;;;5055386;28;20241;-73
2022/06/23 12:34:46;;;;;;;0.00;0.00;;;31.30;99.90;;;;;;5050766;28;20758;-73
2022/06/23 12:37:21;;;;;;;0.00;0.00;;;31.20;99.90;;;;;;5045113;28;20213;-71
2022/06/23 12:39:56;;;;;;;0.00;0.00;;;31.10;99.90;;;;;;5044555;28;20202;-72
2022/06/23 12:42:31;;;;;;;0.00;0.00;;;31.10;99.90;;;;;;5041062;28;20214;-71
2022/06/23 12:45:39;;;;;;;0.00;0.00;;;31.00;99.90;;;;;;5031587;28;20196;-72
2022/06/23 12:48:30;;;;;;;0.00;0.00;;;30.80;99.90;;;;;;4974713;28;20308;-72
2022/06/23 12:51:06;;;;;;;0.00;0.00;;;30.60;99.90;;;;;;4963930;28;20212;-71
2022/06/23 12:53:59;;;;;;;0.00;0.00;;;30.50;99.90;;;;;;5020830;28;20226;-72
2022/06/23 12:56:51;;;;;;;0.00;0.00;;;30.50;99.90;;;;;;5046818;28;20195;-71
2022/06/23 12:59:28;;;;;;;0.00;0.00;;;30.60;99.90;;;;;;5038329;28;20207;-72
2022/06/23 13:02:05;;;;;;;0.00;0.00;;;30.60;99.90;;;;;;5043775;28;20249;-72
2022/06/23 13:04:42;;;;;;;0.00;0.00;;;30.60;99.90;;;;;;5043692;28;20199;-76
2022/06/23 13:07:15;;;;;;;0.00;0.00;;;30.50;99.90;;;;;;5036455;28;20278;-72
2022/06/23 13:09:48;;;;;;;0.00;0.00;;;30.40;99.90;;;;;;5049093;28;20207;-73
2022/06/23 13:12:20;;;;;;;0.00;0.00;;;30.30;99.90;;;;;;5042791;28;20273;-73
2022/06/23 13:14:54;;;;;;;0.00;0.00;;;30.30;99.90;;;;;;5037409;28;20223;-75
2022/06/23 13:17:32;;;;;;;0.00;0.00;;;30.30;99.90;;;;;;5039942;28;20218;-75
2022/06/23 13:20:05;;;;;;;0.00;0.00;;;30.30;99.90;;;;;;5047489;28;20208;-75
2022/06/23 13:22:44;;;;;;;0.00;0.00;;;30.30;99.90;;;;;;5038525;28;20243;-75
2022/06/23 13:25:16;;;;;;;0.00;0.00;;;30.30;99.90;;;;;;5044625;28;20215;-74
2022/06/23 13:27:49;;;;;;;0.00;0.00;;;30.40;99.90;;;;;;5041545;28;20740;-74
2022/06/23 13:30:19;;;;;;;0.00;0.00;;;30.40;99.90;;;;;;5042155;28;20226;-75
2022/06/23 13:33:00;;;;;;;0.00;0.00;;;30.40;99.90;;;;;;5053675;28;20264;-75
2022/06/23 13:35:32;;;;;;;0.00;0.00;;;30.50;99.90;;;;;;5044930;28;20252;-74
2022/06/23 13:38:10;;;;;;;0.00;0.00;;;30.40;99.90;;;;;;5045169;28;20222;-74
2022/06/23 13:40:45;;;;;;;0.00;0.00;;;30.50;99.90;;;;;;5042050;28;20210;-75
2022/06/23 13:43:19;;;;;;;0.00;0.00;;;30.50;99.90;;;;;;5037168;28;20224;-75
2022/06/23 13:45:51;;;;;;;0.00;0.00;;;30.50;99.90;;;;;;5039804;28;20206;-74
2022/06/23 13:48:29;;;;;;;0.00;0.00;;;30.50;99.90;;;;;;5043661;28;20195;-73
2022/06/23 13:51:01;;;;;;;0.00;0.00;;;30.50;99.90;;;;;;5040759;28;20195;-75
2022/06/23 13:53:34;;;;;;;0.00;0.00;;;30.50;99.90;;;;;;5040905;28;20261;-75
2022/06/23 13:56:11;;;;;;;0.00;0.00;;;30.50;99.90;;;;;;5043562;28;20247;-74